createdAt,value
2022-09-02T00:01:57.736Z,52.73
2022-09-02T00:04:28.264Z,53.20
2022-09-02T00:06:56.899Z,53.55
2022-09-02T00:09:28.373Z,53.47
2022-09-02T00:11:58.217Z,53.03
2022-09-02T00:14:30.042Z,53.53
2022-09-02T00:17:01.381Z,54.40
2022-09-02T00:19:32.213Z,54.73
2022-09-02T00:22:02.728Z,55.48
2022-09-02T00:24:31.483Z,55.68
2022-09-02T00:27:00.334Z,55.91
2022-09-02T00:29:29.701Z,55.86
2022-09-02T00:32:00.276Z,55.91
2022-09-02T00:34:29.314Z,55.98
2022-09-02T00:36:57.984Z,56.56
2022-09-02T00:39:27.870Z,56.59
2022-09-02T00:41:56.463Z,56.98
2022-09-02T00:44:25.555Z,57.33
2022-09-02T00:46:54.683Z,57.44
2022-09-02T00:49:27.801Z,57.90
2022-09-02T00:52:01.378Z,58.68
2022-09-02T00:54:33.692Z,58.32
2022-09-02T00:57:04.892Z,58.35
2022-09-02T00:59:45.319Z,58.84
2022-09-02T01:02:15.290Z,58.69
2022-09-02T01:04:46.832Z,59.12
2022-09-02T01:07:16.582Z,59.71
2022-09-02T01:09:45.528Z,59.59
2022-09-02T01:12:15.438Z,60.15
2022-09-02T01:14:45.040Z,60.06
2022-09-02T01:17:14.053Z,60.39
2022-09-02T01:19:49.349Z,60.04
2022-09-02T01:22:23.295Z,60.71
2022-09-02T01:24:53.234Z,60.82
2022-09-02T01:27:25.074Z,61.58
2022-09-02T01:29:55.233Z,61.42
2022-09-02T01:32:24.651Z,62.28
2022-09-02T01:34:53.329Z,62.80
2022-09-02T01:37:23.598Z,62.72
2022-09-02T01:39:53.236Z,63.01
2022-09-02T01:42:23.303Z,63.06
2022-09-02T01:44:52.633Z,63.38
2022-09-02T01:47:25.374Z,63.41
2022-09-02T01:49:55.452Z,63.20
2022-09-02T01:52:28.402Z,63.72
2022-09-02T01:54:57.716Z,63.86
2022-09-02T01:57:26.415Z,63.98
2022-09-02T01:59:57.095Z,63.76
2022-09-02T02:02:26.141Z,64.02
2022-09-02T02:04:55.324Z,64.03
2022-09-02T02:07:26.264Z,64.23
2022-09-02T02:09:55.125Z,64.39
2022-09-02T02:12:23.994Z,64.35
2022-09-02T02:14:52.824Z,64.24
2022-09-02T02:17:24.082Z,64.39
2022-09-02T02:19:52.791Z,64.84
2022-09-02T02:22:21.612Z,64.73
2022-09-02T02:24:51.783Z,64.80
2022-09-02T02:27:20.742Z,64.92
2022-09-02T02:29:49.554Z,65.13
2022-09-02T02:32:19.451Z,65.23
2022-09-02T02:34:49.645Z,65.10
2022-09-02T02:37:23.369Z,65.61
2022-09-02T02:39:56.073Z,65.92
2022-09-02T02:42:25.386Z,66.37
2022-09-02T02:44:54.082Z,66.47
2022-09-02T02:47:22.933Z,66.83
2022-09-02T02:49:51.661Z,66.19
2022-09-02T02:52:20.803Z,66.29
2022-09-02T02:54:49.932Z,66.75
2022-09-02T02:57:20.037Z,67.01
2022-09-02T02:59:48.805Z,66.35
2022-09-02T03:02:17.860Z,66.52
2022-09-02T03:04:46.635Z,65.64
2022-09-02T03:07:15.352Z,65.05
2022-09-02T03:09:44.454Z,64.75
2022-09-02T03:12:17.513Z,64.59
2022-09-02T03:14:49.605Z,65.02
2022-09-02T03:17:20.368Z,65.51
2022-09-02T03:19:51.141Z,65.78
2022-09-02T03:22:20.152Z,66.14
2022-09-02T03:24:49.004Z,66.12
2022-09-02T03:27:17.752Z,65.40
2022-09-02T03:29:47.831Z,65.21
2022-09-02T03:32:16.733Z,65.02
2022-09-02T03:34:46.696Z,65.54
2022-09-02T03:37:15.596Z,65.62
2022-09-02T03:39:44.256Z,66.17
2022-09-02T03:42:15.119Z,66.13
2022-09-02T03:44:52.693Z,66.45
2022-09-02T03:47:21.921Z,67.31
2022-09-02T03:49:55.706Z,67.68
2022-09-02T03:52:26.344Z,68.22
2022-09-02T03:54:55.133Z,68.83
2022-09-02T03:57:26.253Z,68.83
2022-09-02T03:59:56.752Z,69.00
2022-09-02T04:02:26.365Z,68.82
2022-09-02T04:04:55.088Z,69.17
2022-09-02T04:07:24.252Z,68.96
2022-09-02T04:09:55.404Z,68.41
2022-09-02T04:12:24.445Z,68.06
2022-09-02T04:15:03.005Z,67.82
2022-09-02T04:17:31.744Z,67.76
2022-09-02T04:20:00.484Z,67.50
2022-09-02T04:22:29.252Z,68.12
2022-09-02T04:24:58.152Z,68.04
2022-09-02T04:27:26.902Z,68.04
2022-09-02T04:29:57.213Z,67.77
2022-09-02T04:32:28.229Z,67.56
2022-09-02T04:34:57.134Z,67.28
2022-09-02T04:37:26.992Z,67.01
2022-09-02T04:39:58.315Z,66.96
2022-09-02T04:42:27.931Z,66.92
2022-09-02T04:44:58.511Z,66.43
2022-09-02T04:47:30.111Z,65.79
2022-09-02T04:49:59.662Z,65.46
2022-09-02T04:52:28.843Z,64.13
2022-09-02T04:54:58.273Z,62.78
2022-09-02T04:57:27.173Z,61.52
2022-09-02T04:59:57.313Z,59.85
2022-09-02T05:02:26.217Z,58.99
2022-09-02T05:04:57.062Z,57.81
2022-09-02T05:07:31.411Z,57.38
2022-09-02T05:10:01.521Z,57.04
2022-09-02T05:12:35.641Z,57.57
2022-09-02T05:15:05.892Z,56.73
2022-09-02T05:17:37.280Z,56.94
2022-09-02T05:20:11.485Z,57.36
2022-09-02T05:22:41.452Z,57.17
2022-09-02T05:25:11.982Z,57.18
2022-09-02T05:27:40.894Z,57.68
2022-09-02T05:30:10.762Z,57.30
2022-09-02T05:32:41.548Z,57.17
2022-09-02T05:35:12.954Z,56.64
2022-09-02T05:37:41.685Z,56.42
2022-09-02T05:40:14.874Z,55.84
2022-09-02T05:42:45.298Z,55.16
2022-09-02T05:45:18.744Z,54.64
2022-09-02T05:47:49.476Z,54.63
2022-09-02T05:50:20.805Z,54.90
2022-09-02T05:52:52.440Z,54.75
2022-09-02T05:55:22.846Z,54.77
2022-09-02T05:57:51.787Z,54.89
2022-09-02T06:00:20.439Z,54.79
2022-09-02T06:02:59.294Z,54.70
2022-09-02T06:05:37.553Z,54.21
2022-09-02T06:08:13.110Z,54.00
2022-09-02T06:10:44.985Z,53.78
2022-09-02T06:13:21.839Z,53.59
2022-09-02T06:15:52.815Z,53.36
2022-09-02T06:18:26.686Z,53.22
2022-09-02T06:20:58.812Z,53.35
2022-09-02T06:23:32.584Z,53.25
2022-09-02T06:26:03.948Z,53.23
2022-09-02T06:28:32.923Z,52.92
2022-09-02T06:31:07.644Z,52.78
2022-09-02T06:33:36.459Z,52.76
2022-09-02T06:36:10.844Z,52.68
2022-09-02T06:38:45.192Z,52.93
2022-09-02T06:41:19.027Z,53.08
2022-09-02T06:43:48.176Z,52.94
2022-09-02T06:46:25.796Z,53.01
2022-09-02T06:48:57.634Z,52.40
2022-09-02T06:51:30.953Z,52.43
2022-09-02T06:54:02.015Z,52.43
2022-09-02T06:56:34.860Z,51.99
2022-09-02T06:59:05.176Z,51.62
2022-09-02T07:01:45.890Z,51.62
2022-09-02T07:04:28.602Z,51.33
2022-09-02T07:06:58.659Z,51.18
2022-09-02T07:09:32.388Z,51.16
2022-09-02T07:12:08.789Z,51.33
2022-09-02T07:14:45.599Z,51.27
2022-09-02T07:17:18.191Z,51.01
2022-09-02T07:19:51.542Z,51.27
2022-09-02T07:22:22.013Z,50.70
2022-09-02T07:24:50.631Z,50.57
2022-09-02T07:27:20.473Z,50.22
2022-09-02T07:29:51.335Z,50.13
2022-09-02T07:32:22.094Z,49.10
2022-09-02T07:34:51.234Z,49.40
2022-09-02T07:37:21.433Z,48.47
2022-09-02T07:39:55.124Z,47.41
2022-09-02T07:42:24.880Z,47.36
2022-09-02T07:44:53.667Z,47.05
2022-09-02T07:47:23.073Z,47.27
2022-09-02T07:52:43.852Z,45.93
2022-09-02T07:55:15.184Z,46.35
2022-09-02T07:57:46.721Z,45.75
2022-09-02T08:00:18.363Z,45.58
2022-09-02T08:02:51.910Z,45.69
2022-09-02T08:05:28.004Z,46.32
2022-09-02T08:07:58.238Z,45.82
2022-09-02T08:10:29.834Z,45.56
2022-09-02T08:13:01.373Z,45.34
2022-09-02T08:15:31.786Z,45.48
2022-09-02T08:18:00.862Z,44.70
2022-09-02T08:20:30.858Z,43.95
2022-09-02T08:23:10.786Z,44.13
2022-09-02T08:25:41.054Z,44.04
2022-09-02T08:28:09.680Z,43.85
2022-09-02T08:30:38.384Z,44.46
2022-09-02T08:33:07.501Z,44.29
2022-09-02T08:35:36.234Z,44.37
2022-09-02T08:38:06.642Z,44.70
2022-09-02T08:40:39.511Z,43.78
2022-09-02T08:43:26.262Z,43.65
2022-09-02T08:45:56.743Z,43.58
2022-09-02T08:48:36.173Z,43.80
2022-09-02T08:51:10.279Z,43.59
2022-09-02T08:53:51.473Z,44.71
2022-09-02T08:56:20.642Z,44.65
2022-09-02T08:58:56.422Z,43.68
2022-09-02T09:01:38.173Z,43.76
2022-09-02T09:04:20.114Z,43.56
2022-09-02T09:07:14.753Z,43.61
2022-09-02T09:10:04.422Z,44.01
2022-09-02T09:12:56.384Z,43.66
2022-09-02T09:15:35.931Z,43.34
2022-09-02T09:18:06.856Z,42.75
2022-09-02T09:20:39.766Z,42.71
2022-09-02T09:23:34.120Z,41.84
2022-09-02T09:26:10.229Z,41.85
2022-09-02T09:28:43.793Z,40.90
2022-09-02T09:31:16.031Z,40.64
2022-09-02T09:33:58.855Z,40.60
2022-09-02T09:36:45.905Z,40.13
2022-09-02T09:39:20.688Z,42.35
2022-09-02T09:41:51.985Z,43.61
2022-09-02T09:44:39.985Z,41.66
2022-09-02T09:47:14.695Z,40.87
2022-09-02T09:49:46.330Z,40.51
2022-09-02T09:52:24.895Z,41.46
2022-09-02T09:55:11.596Z,41.61
2022-09-02T09:57:46.010Z,41.29
2022-09-02T10:00:23.158Z,40.46
2022-09-02T10:02:53.848Z,41.56
2022-09-02T10:05:36.637Z,40.58
2022-09-02T10:08:15.270Z,39.31
2022-09-02T10:10:58.677Z,39.73
2022-09-02T10:13:31.301Z,37.85
2022-09-02T10:16:24.869Z,37.63
2022-09-02T10:18:57.796Z,36.78
2022-09-02T10:21:44.991Z,35.40
2022-09-02T10:24:34.688Z,35.13
2022-09-02T10:27:10.300Z,35.01
2022-09-02T10:29:57.389Z,36.15
2022-09-02T10:32:46.947Z,35.97
2022-09-02T10:35:22.839Z,36.74
2022-09-02T10:38:05.338Z,38.02
2022-09-02T10:40:42.249Z,37.16
2022-09-02T10:43:24.325Z,36.22
2022-09-02T10:45:59.799Z,35.33
2022-09-02T10:48:42.197Z,35.23
2022-09-02T10:51:22.737Z,34.79
2022-09-02T10:54:03.620Z,34.89
2022-09-02T10:56:40.550Z,35.59
2022-09-02T10:59:14.895Z,35.53
2022-09-02T11:01:53.648Z,35.83
2022-09-02T11:04:28.317Z,38.40
2022-09-02T11:07:03.330Z,38.47
2022-09-02T11:09:38.178Z,37.52
2022-09-02T11:12:12.461Z,37.38
2022-09-02T11:14:54.939Z,37.23
2022-09-02T11:17:29.867Z,37.03
2022-09-02T11:20:05.908Z,38.84
2022-09-02T11:22:42.777Z,38.74
2022-09-02T11:25:17.476Z,38.10
2022-09-02T11:27:54.170Z,38.86
2022-09-02T11:30:26.896Z,39.57
2022-09-02T11:33:03.850Z,40.19
2022-09-02T11:35:39.072Z,41.19
2022-09-02T11:38:21.547Z,41.24
2022-09-02T11:41:36.752Z,41.88
2022-09-02T11:44:52.257Z,41.94
2022-09-02T11:47:40.090Z,39.85
2022-09-02T11:50:37.315Z,38.87
2022-09-02T11:53:21.387Z,38.42
2022-09-02T11:55:56.628Z,37.61
2022-09-02T11:58:33.592Z,36.85
2022-09-02T12:01:08.129Z,36.46
2022-09-02T12:04:16.204Z,36.93
2022-09-02T12:06:38.607Z,36.37
2022-09-02T12:09:11.448Z,36.31
2022-09-02T12:11:55.282Z,36.75
2022-09-02T12:14:45.649Z,37.94
2022-09-02T12:17:37.648Z,38.94
2022-09-02T12:20:09.761Z,39.06
2022-09-02T12:22:43.467Z,38.38
2022-09-02T12:25:35.132Z,38.94
2022-09-02T12:28:25.347Z,38.77
2022-09-02T12:31:13.202Z,37.12
2022-09-02T12:33:44.341Z,36.30
2022-09-02T12:36:47.558Z,36.04
2022-09-02T12:39:37.911Z,35.95
2022-09-02T12:42:26.046Z,35.26
2022-09-02T12:45:04.757Z,35.85
2022-09-02T12:47:45.544Z,34.55
2022-09-02T12:50:23.629Z,35.02
2022-09-02T12:52:53.889Z,35.30
2022-09-02T12:55:27.665Z,34.51
2022-09-02T12:58:10.893Z,33.88
2022-09-02T13:00:54.553Z,33.81
2022-09-02T13:03:48.176Z,34.64
2022-09-02T13:06:27.082Z,35.07
2022-09-02T13:09:26.518Z,34.50
2022-09-02T13:12:12.976Z,34.12
2022-09-02T13:15:00.374Z,33.98
2022-09-02T13:17:48.913Z,33.64
2022-09-02T13:20:42.786Z,33.82
2022-09-02T13:23:35.244Z,33.93
2022-09-02T13:26:48.358Z,33.17
2022-09-02T13:29:50.093Z,33.72
2022-09-02T13:32:26.773Z,33.88
2022-09-02T13:34:59.426Z,33.92
2022-09-02T13:37:29.464Z,34.75
2022-09-02T13:39:58.506Z,34.88
2022-09-02T13:42:32.926Z,34.12
2022-09-02T13:45:14.515Z,34.17
2022-09-02T13:47:46.901Z,35.27
2022-09-02T13:50:19.878Z,35.68
2022-09-02T13:53:45.805Z,35.59
2022-09-02T13:55:49.462Z,35.19
2022-09-02T13:58:34.432Z,33.34
2022-09-02T14:01:20.191Z,32.49
2022-09-02T14:03:52.477Z,32.22
2022-09-02T14:06:25.123Z,32.22
2022-09-02T14:08:58.875Z,32.15
2022-09-02T14:11:29.396Z,32.27
2022-09-02T14:13:58.953Z,32.56
2022-09-02T14:16:34.667Z,31.84
2022-09-02T14:19:24.604Z,31.92
2022-09-02T14:21:56.325Z,32.23
2022-09-02T14:24:27.599Z,32.63
2022-09-02T14:26:57.585Z,32.53
2022-09-02T14:29:27.768Z,33.58
2022-09-02T14:32:13.453Z,32.95
2022-09-02T14:34:44.756Z,32.66
2022-09-02T14:37:24.632Z,32.96
2022-09-02T14:39:54.961Z,33.27
2022-09-02T14:42:26.260Z,33.16
2022-09-02T14:44:59.804Z,32.54
2022-09-02T14:47:29.307Z,32.58
2022-09-02T14:49:59.440Z,32.94
2022-09-02T14:52:31.454Z,32.60
2022-09-02T14:55:00.788Z,32.84
2022-09-02T14:57:33.172Z,33.33
2022-09-02T15:00:05.999Z,34.15
2022-09-02T15:02:38.929Z,33.23
2022-09-02T15:05:11.847Z,34.30
2022-09-02T15:07:40.637Z,36.22
2022-09-02T15:10:10.566Z,36.84
2022-09-02T15:12:45.787Z,36.29
2022-09-02T15:15:14.582Z,35.61
2022-09-02T15:17:43.401Z,34.66
2022-09-02T15:20:13.693Z,34.37
2022-09-02T15:22:43.601Z,32.96
2022-09-02T15:25:12.500Z,32.51
2022-09-02T15:27:41.361Z,33.26
2022-09-02T15:30:11.384Z,32.75
2022-09-02T15:32:40.212Z,32.93
2022-09-02T15:35:10.382Z,34.31
2022-09-02T15:37:40.552Z,36.47
2022-09-02T15:40:10.848Z,36.93
2022-09-02T15:42:40.252Z,37.80
2022-09-02T15:45:10.323Z,39.07
2022-09-02T15:47:39.621Z,39.04
2022-09-02T15:50:08.869Z,39.08
2022-09-02T15:52:39.942Z,40.55
2022-09-02T15:55:09.841Z,41.28
2022-09-02T15:57:38.333Z,40.31
2022-09-02T16:00:10.675Z,38.90
2022-09-02T16:02:40.320Z,37.17
2022-09-02T16:05:12.353Z,40.30
2022-09-02T16:07:42.472Z,42.43
2022-09-02T16:10:11.947Z,43.08
2022-09-02T16:12:40.463Z,45.22
2022-09-02T16:15:10.313Z,43.82
2022-09-02T16:17:38.883Z,43.12
2022-09-02T16:20:08.189Z,41.84
2022-09-02T16:22:37.688Z,44.40
2022-09-02T16:25:08.763Z,47.05
2022-09-02T16:27:47.374Z,48.80
2022-09-02T16:30:16.390Z,49.61
2022-09-02T16:32:46.723Z,50.40
2022-09-02T16:35:15.621Z,51.45
2022-09-02T16:37:45.085Z,51.36
2022-09-02T16:40:21.832Z,51.47
2022-09-02T16:42:51.702Z,50.56
2022-09-02T16:45:20.253Z,50.50
2022-09-02T16:47:49.026Z,50.90
2022-09-02T16:50:17.842Z,50.66
2022-09-02T16:52:46.322Z,50.43
2022-09-02T16:55:19.093Z,50.63
2022-09-02T16:57:47.738Z,50.66
2022-09-02T17:00:17.906Z,51.50
2022-09-02T17:02:46.551Z,51.80
2022-09-02T17:05:17.854Z,51.98
2022-09-02T17:07:47.503Z,51.88
2022-09-02T17:10:17.666Z,52.00
2022-09-02T17:12:46.363Z,52.33
2022-09-02T17:15:15.055Z,52.50
2022-09-02T17:17:44.328Z,52.23
2022-09-02T17:20:13.357Z,52.24
2022-09-02T17:22:42.537Z,52.23
2022-09-02T17:25:11.605Z,52.22
2022-09-02T17:27:42.205Z,52.51
2022-09-02T17:30:12.561Z,52.95
2022-09-02T17:32:42.857Z,53.05
2022-09-02T17:35:13.196Z,53.37
2022-09-02T17:37:42.019Z,53.66
2022-09-02T17:40:34.523Z,53.54
2022-09-02T17:43:03.857Z,53.37
2022-09-02T17:45:32.584Z,53.53
2022-09-02T17:48:32.007Z,54.12
2022-09-02T17:50:51.292Z,54.04
2022-09-02T17:53:19.826Z,54.46
2022-09-02T17:55:51.775Z,54.78
2022-09-02T17:58:23.224Z,54.76
2022-09-02T18:01:00.776Z,54.99
2022-09-02T18:03:42.565Z,55.37
2022-09-02T18:06:15.027Z,55.89
2022-09-02T18:08:53.786Z,56.17
2022-09-02T18:11:23.379Z,56.65
2022-09-02T18:14:05.947Z,56.67
2022-09-02T18:16:40.928Z,56.53
2022-09-02T18:19:19.925Z,56.93
2022-09-02T18:22:00.007Z,56.93
2022-09-02T18:24:44.287Z,56.89
2022-09-02T18:27:21.297Z,56.74
2022-09-02T18:30:03.651Z,57.31
2022-09-02T18:32:48.936Z,58.11
2022-09-02T18:35:27.061Z,58.58
2022-09-02T18:38:07.947Z,58.77
2022-09-02T18:40:45.466Z,58.72
2022-09-02T18:43:23.569Z,59.24
2022-09-02T18:45:55.622Z,59.33
2022-09-02T18:48:29.448Z,59.26
2022-09-02T18:51:02.097Z,59.32
2022-09-02T18:53:33.638Z,59.29
2022-09-02T18:56:07.943Z,59.47
2022-09-02T18:58:43.914Z,59.72
2022-09-02T19:01:20.868Z,59.62
2022-09-02T19:03:50.922Z,59.72
2022-09-02T19:06:21.973Z,59.79
2022-09-02T19:08:57.991Z,60.18
2022-09-02T19:11:27.614Z,60.42
2022-09-02T19:14:01.333Z,60.93
2022-09-02T19:16:35.277Z,61.11
2022-09-02T19:19:04.520Z,61.02
2022-09-02T19:21:37.487Z,61.06
2022-09-02T19:24:10.345Z,61.12
2022-09-02T19:26:40.946Z,60.94
2022-09-02T19:29:13.453Z,60.90
2022-09-02T19:31:47.301Z,61.20
2022-09-02T19:34:17.969Z,61.21
2022-09-02T19:36:50.259Z,61.00
2022-09-02T19:39:19.322Z,60.94
2022-09-02T19:41:50.436Z,61.01
2022-09-02T19:44:19.548Z,60.61
2022-09-02T19:49:39.019Z,59.62
2022-09-02T19:52:08.226Z,59.49
2022-09-02T19:54:37.828Z,59.01
2022-09-02T19:57:06.948Z,59.12
2022-09-02T19:59:35.805Z,59.43
2022-09-02T20:02:06.866Z,58.96
2022-09-02T20:04:35.827Z,58.69
2022-09-02T20:07:04.826Z,58.71
2022-09-02T20:09:34.218Z,58.83
2022-09-02T20:12:02.978Z,59.06
2022-09-02T20:14:31.737Z,58.23
2022-09-02T20:17:03.725Z,58.00
2022-09-02T20:19:34.979Z,57.31
2022-09-02T20:22:05.315Z,57.79
2022-09-02T20:24:36.359Z,57.71
2022-09-02T20:27:17.779Z,58.25
2022-09-02T20:30:01.017Z,58.66
2022-09-02T20:32:45.219Z,59.15
2022-09-02T20:35:35.323Z,59.72
2022-09-02T20:38:16.958Z,59.45
2022-09-02T20:40:58.155Z,59.06
2022-09-02T20:43:53.817Z,58.59
2022-09-02T20:46:35.863Z,59.10
2022-09-02T20:49:23.675Z,59.39
2022-09-02T20:51:59.539Z,59.17
2022-09-02T20:54:39.017Z,59.76
2022-09-02T20:57:23.690Z,59.36
2022-09-02T21:00:03.425Z,59.67
2022-09-02T21:02:43.759Z,59.15
2022-09-02T21:05:22.248Z,59.79
2022-09-02T21:08:01.579Z,59.79
2022-09-02T21:10:34.606Z,60.15
2022-09-02T21:13:12.050Z,60.67
2022-09-02T21:15:46.187Z,61.07
2022-09-02T21:18:21.991Z,61.25
2022-09-02T21:20:57.436Z,61.81
2022-09-02T21:23:33.765Z,62.04
2022-09-02T21:26:16.167Z,62.48
2022-09-02T21:28:50.869Z,62.35
2022-09-02T21:31:29.700Z,62.93
2022-09-02T21:34:06.148Z,62.76
2022-09-02T21:36:37.290Z,62.49
2022-09-02T21:39:13.876Z,62.44
2022-09-02T21:41:46.586Z,61.18
2022-09-02T21:44:24.809Z,60.95
2022-09-02T21:47:01.764Z,61.30
2022-09-02T21:49:48.635Z,61.39
2022-09-02T21:52:31.097Z,61.05
2022-09-02T21:55:10.515Z,61.44
2022-09-02T21:57:55.534Z,61.51
2022-09-02T22:00:24.796Z,61.86
2022-09-02T22:03:03.218Z,61.67
2022-09-02T22:05:49.028Z,62.11
2022-09-02T22:08:29.237Z,62.71
2022-09-02T22:11:08.227Z,62.71
2022-09-02T22:13:37.990Z,63.04
2022-09-02T22:16:18.335Z,63.46
2022-09-02T22:18:54.490Z,63.37
2022-09-02T22:21:30.629Z,63.76
2022-09-02T22:23:59.670Z,63.23
2022-09-02T22:26:38.380Z,63.94
2022-09-02T22:29:17.697Z,63.56
2022-09-02T22:31:51.461Z,63.74
2022-09-02T22:34:24.128Z,63.72
2022-09-02T22:36:58.661Z,63.67
2022-09-02T22:39:35.529Z,64.18
2022-09-02T22:42:16.229Z,64.35
2022-09-02T22:45:00.338Z,64.29
2022-09-02T22:47:40.091Z,64.80
2022-09-02T22:50:20.421Z,64.28
2022-09-02T22:52:55.819Z,64.26
2022-09-02T22:55:47.102Z,64.22
2022-09-02T22:58:38.903Z,64.38
2022-09-02T23:01:19.968Z,64.54
2022-09-02T23:04:02.907Z,64.06
2022-09-02T23:06:33.207Z,64.47
2022-09-02T23:09:08.763Z,64.48
2022-09-02T23:11:44.632Z,64.52
2022-09-02T23:14:27.012Z,64.52
2022-09-02T23:17:34.879Z,64.55
2022-09-02T23:20:12.444Z,65.12
2022-09-02T23:23:04.997Z,65.16
2022-09-02T23:25:43.943Z,65.38
2022-09-02T23:28:17.264Z,65.93
2022-09-02T23:30:55.572Z,66.67
2022-09-02T23:33:35.674Z,67.17
2022-09-02T23:36:14.810Z,67.98
2022-09-02T23:38:58.174Z,68.13
2022-09-02T23:41:28.042Z,68.20
2022-09-02T23:43:57.451Z,67.86
2022-09-02T23:46:43.291Z,67.94
2022-09-02T23:49:23.210Z,68.58
2022-09-02T23:52:00.117Z,68.82
2022-09-02T23:54:50.925Z,68.72
2022-09-02T23:57:36.494Z,69.05
